Lauderdale, MS (39335)

8:46 AM CDT on September 03, 2015 (GMT -0500)
Bailey, MS (Cook Road) | | Change Station
CLOSE
Current Station
Personal Weather Station
Location: Meridian, MS
Elevation: 424 ft
Nearby Weather Stations

Elev 424 ft 32.46 °N, 88.69 °W | Updated 7 seconds ago

Mostly Cloudy
Mostly Cloudy
77.8 °F
Feels Like 80 °F
N
0.0
Wind Variable Wind from NW
Gusts 2.0 mph

Today
High -- | Low -- °F
--% Chance of Precip.
Yesterday
High -- | Low -- °F
Precip. -- in
6:30 AM 7:16 PM
Waning Gibbous, 70% visible
Pressure 30.02 in
Visibility 7.0 miles
Clouds Scattered Clouds 8500 ft
Heat Index 80 °F
Dew Point 74 °F
Humidity 88%
Rainfall 0.00 in
Snow Depth Not available.
UV 1.0 out of 12
Pollen 8.80 out of 12
Air Quality Not available.
Flu Activity Not available.
METAR KMEI 031258Z 00000KT 7SM SCT085 24/23 A3003 RMK AO2 SLP166 T02390228
Pressure 30.02 in
Visibility 7.0 miles
Clouds Scattered Clouds 8500 ft
Heat Index 80 °F
Dew Point 74 °F
Humidity 88%
Rainfall 0.00 in
Snow Depth Not available.
UV 1.0 out of 12
Pollen 8.80 out of 12
Air Quality Not available.
Flu Activity Not available.
METAR KMEI 031258Z 00000KT 7SM SCT085 24/23 A3003 RMK AO2 SLP166 T02390228

10-Day Weather Forecast

×

Almanac

Astronomy

Sep. 03, 2015 Rise Set
Actual Time
Civil Twilight
Nautical Twilight
Astronomical Twilight
Moon
Length of Visible Light
Length of Day
Tomorrow will be .
, % of the Moon is Illuminated

Today's Extremes

State Highs State Lows

Community

WunderPhotos

Upload Photos

1,851,952 photos uploaded!

WunderBlogs® & News

Nearby

Air Quality

  Air Quality AQ Index Pollutant
Not available.

Snow Depth

Station Depth Elevation

Earthquake Activity

City Distance Mag. Time & Date
Minimum magnitude displayed is 2.5.

Coastal Water Temperatures

Place Temperature

Stations

Nearby Weather Stations

Station Location Temp. Windchill Dew Point Humidity Wind Precip. Elev Updated Type